Time;durP1;ratioP1;P1;durP2;ratioP2;P2;SDS_P1;SDS_P2;PMS_P1;PMS_P2;Temp;Humidity;BMP_temperature;BMP_pressure;BME280_temperature;BME280_humidity;BME280_pressure;Samples;Min_cycle;Max_cycle;Signal;HPM_P1;HPM_P2
2022/03/11 00:01:46;;;;;;;10.95;5.50;;;0.40;74.10;;;;;;4971733;28;20035;-90
2022/03/11 00:04:11;;;;;;;9.57;5.43;;;0.40;74.20;;;;;;4971928;28;20576;-90
2022/03/11 00:06:37;;;;;;;12.48;5.80;;;0.30;74.20;;;;;;4971262;28;20031;-89
2022/03/11 00:09:03;;;;;;;12.50;5.57;;;0.30;74.60;;;;;;4971982;28;20256;-88
2022/03/11 00:11:28;;;;;;;13.27;5.22;;;0.20;75.30;;;;;;4968956;28;20406;-91
2022/03/11 00:13:54;;;;;;;18.95;5.60;;;0.20;75.30;;;;;;4972154;28;20460;-87
2022/03/11 00:16:20;;;;;;;8.65;4.55;;;0.10;75.80;;;;;;4972466;28;20031;-88
2022/03/11 00:18:46;;;;;;;14.93;6.25;;;0.00;76.90;;;;;;4970930;28;20118;-90
2022/03/11 00:21:12;;;;;;;14.40;5.90;;;-0.10;77.00;;;;;;4972285;28;20390;-88
2022/03/11 00:23:42;;;;;;;11.68;6.22;;;-0.20;78.40;;;;;;4968028;28;20055;-90
2022/03/11 00:26:08;;;;;;;12.48;5.72;;;-0.20;79.70;;;;;;4972161;28;20037;-87
2022/03/11 00:28:34;;;;;;;12.50;5.57;;;-0.20;80.30;;;;;;4970792;28;20038;-88
2022/03/11 00:31:00;;;;;;;11.23;5.18;;;-0.20;80.00;;;;;;4971365;28;20332;-88
2022/03/11 00:33:26;;;;;;;12.55;5.80;;;-0.10;80.10;;;;;;4971464;28;20019;-87
2022/03/11 00:35:51;;;;;;;15.48;6.15;;;-0.10;80.40;;;;;;4972006;28;20163;-88
2022/03/11 00:38:17;;;;;;;14.57;6.05;;;-0.10;80.70;;;;;;4972524;28;20086;-89
2022/03/11 00:40:42;;;;;;;12.02;5.85;;;-0.10;80.80;;;;;;4972353;28;20041;-88
2022/03/11 00:43:08;;;;;;;14.70;6.45;;;-0.40;80.90;;;;;;4972519;28;20668;-88
2022/03/11 00:45:34;;;;;;;12.82;6.18;;;-0.40;82.20;;;;;;4970895;28;20106;-88
2022/03/11 00:47:59;;;;;;;14.07;7.72;;;-0.30;82.00;;;;;;4971687;28;20039;-89
2022/03/11 00:50:25;;;;;;;14.13;6.93;;;-0.40;83.10;;;;;;4971582;28;20019;-88
2022/03/11 00:52:51;;;;;;;15.80;6.05;;;-0.50;84.70;;;;;;4971364;28;20124;-89
2022/03/11 00:55:17;;;;;;;13.10;6.43;;;-0.40;84.60;;;;;;4971081;28;20101;-90
2022/03/11 00:57:42;;;;;;;15.10;6.55;;;-0.30;84.80;;;;;;4971692;28;20568;-89
2022/03/11 01:00:09;;;;;;;17.23;6.95;;;-0.30;84.90;;;;;;4971853;28;20035;-88
2022/03/11 01:02:36;;;;;;;12.77;6.22;;;-0.40;85.40;;;;;;4970810;28;20126;-89
2022/03/11 01:05:06;;;;;;;17.17;7.15;;;-0.30;86.10;;;;;;4970897;28;20484;-89
2022/03/11 01:07:33;;;;;;;12.88;6.32;;;-0.40;85.80;;;;;;4971868;28;20047;-89
2022/03/11 01:09:59;;;;;;;12.68;6.40;;;-0.50;87.20;;;;;;4971904;28;20030;-89
2022/03/11 01:12:25;;;;;;;18.10;7.55;;;-0.60;87.60;;;;;;4971422;28;20031;-89
2022/03/11 01:14:50;;;;;;;15.35;7.35;;;-0.70;88.60;;;;;;4971251;28;20038;-89
2022/03/11 01:17:16;;;;;;;16.08;7.15;;;-0.70;89.70;;;;;;4970700;28;20065;-86
2022/03/11 01:19:42;;;;;;;17.02;7.68;;;-0.60;90.10;;;;;;4971471;28;20059;-88
2022/03/11 01:22:07;;;;;;;20.33;8.80;;;-0.60;90.00;;;;;;4970149;28;20321;-89
2022/03/11 01:24:33;;;;;;;16.92;7.43;;;-0.50;90.30;;;;;;4971148;28;20035;-89
2022/03/11 01:26:59;;;;;;;17.92;8.07;;;-0.60;90.40;;;;;;4971588;28;20035;-89
2022/03/11 01:29:25;;;;;;;17.00;9.05;;;-0.50;90.30;;;;;;4970500;28;20110;-87
2022/03/11 01:31:52;;;;;;;14.70;8.38;;;-0.60;90.80;;;;;;4970806;28;20117;-88
2022/03/11 01:34:18;;;;;;;20.15;8.50;;;-0.70;91.10;;;;;;4971515;28;20463;-90
2022/03/11 01:36:44;;;;;;;19.13;8.85;;;-0.80;91.50;;;;;;4970600;28;20171;-89
2022/03/11 01:39:09;;;;;;;21.58;8.90;;;-0.90;92.10;;;;;;4971271;28;20507;-89
2022/03/11 01:41:35;;;;;;;20.23;8.88;;;-1.00;92.30;;;;;;4970041;28;20483;-90
2022/03/11 01:44:04;;;;;;;19.20;8.90;;;-1.00;93.10;;;;;;4971144;28;20234;-88
2022/03/11 01:46:30;;;;;;;15.98;8.30;;;-1.00;93.00;;;;;;4971191;28;20044;-89
2022/03/11 01:48:57;;;;;;;21.45;9.50;;;-1.00;93.60;;;;;;4971185;28;20062;-89
2022/03/11 01:51:23;;;;;;;26.00;9.63;;;-0.90;93.50;;;;;;4971070;28;20496;-89
2022/03/11 01:53:49;;;;;;;24.75;10.32;;;-0.90;93.90;;;;;;4970049;28;20155;-88
2022/03/11 01:56:15;;;;;;;18.67;9.75;;;-1.10;93.60;;;;;;4971238;28;20026;-89
2022/03/11 01:58:40;;;;;;;18.77;9.63;;;-1.10;94.50;;;;;;4972851;28;20035;-87
2022/03/11 02:01:06;;;;;;;22.05;9.68;;;-1.30;94.20;;;;;;4974220;28;20130;-86
2022/03/11 02:03:33;;;;;;;24.13;10.10;;;-1.30;95.50;;;;;;4974161;28;20054;-86
2022/03/11 02:06:02;;;;;;;23.45;10.13;;;-1.20;96.00;;;;;;4969029;28;20030;-90
2022/03/11 02:08:30;;;;;;;26.13;11.25;;;-1.20;96.10;;;;;;4974786;28;20057;-89
2022/03/11 02:10:56;;;;;;;24.30;10.35;;;-1.10;96.40;;;;;;4975570;28;20418;-88
2022/03/11 02:13:22;;;;;;;23.67;10.38;;;-1.10;96.70;;;;;;4973383;28;20113;-90
2022/03/11 02:15:47;;;;;;;28.95;12.23;;;-1.10;97.30;;;;;;4975011;28;20458;-89
2022/03/11 02:18:13;;;;;;;23.27;11.55;;;-1.20;96.10;;;;;;4973882;28;20039;-90
2022/03/11 02:20:39;;;;;;;22.85;11.95;;;-1.30;97.20;;;;;;4974786;28;20126;-89
2022/03/11 02:23:07;;;;;;;27.20;12.60;;;-1.20;97.90;;;;;;4974657;28;20456;-91
2022/03/11 02:25:32;;;;;;;29.55;13.20;;;-1.20;97.90;;;;;;4974483;28;20470;-90
2022/03/11 02:27:58;;;;;;;22.67;11.32;;;-1.30;98.40;;;;;;4974293;28;20046;-90
2022/03/11 02:30:24;;;;;;;24.35;11.93;;;-1.40;99.20;;;;;;4973084;28;20054;-89
2022/03/11 02:32:50;;;;;;;31.38;13.38;;;-1.30;99.20;;;;;;4974140;28;20557;-90
2022/03/11 02:35:17;;;;;;;25.70;12.10;;;-1.30;99.10;;;;;;4974610;28;20035;-89
2022/03/11 02:37:42;;;;;;;28.67;12.73;;;-1.40;98.90;;;;;;4974501;28;20027;-89
2022/03/11 02:40:09;;;;;;;25.88;12.93;;;-1.50;99.50;;;;;;4973754;28;20039;-88
2022/03/11 02:42:35;;;;;;;32.03;13.75;;;-1.50;99.50;;;;;;4973583;28;20030;-89
2022/03/11 02:45:03;;;;;;;27.88;13.85;;;-1.60;99.60;;;;;;4974415;28;20394;-89
2022/03/11 02:47:29;;;;;;;28.38;13.43;;;-1.60;99.90;;;;;;4974178;28;20478;-90
2022/03/11 02:49:55;;;;;;;31.35;14.52;;;-1.60;99.90;;;;;;4973985;28;20030;-90
2022/03/11 02:52:21;;;;;;;31.23;13.52;;;-1.60;99.90;;;;;;4972773;28;20478;-89
2022/03/11 02:54:48;;;;;;;27.98;14.30;;;-1.60;99.90;;;;;;4973895;28;20019;-91
2022/03/11 02:57:17;;;;;;;33.42;15.75;;;-1.60;99.90;;;;;;4973786;28;20065;-89
2022/03/11 02:59:46;;;;;;;32.63;15.48;;;-1.70;99.90;;;;;;4973718;28;20501;-89
2022/03/11 03:02:12;;;;;;;28.25;14.25;;;-1.70;99.90;;;;;;4973175;28;20057;-89
2022/03/11 03:04:38;;;;;;;42.15;18.08;;;-1.80;99.90;;;;;;4972179;28;20047;-88
2022/03/11 03:07:05;;;;;;;35.45;16.27;;;-1.70;99.90;;;;;;4973449;28;20161;-87
2022/03/11 03:09:30;;;;;;;30.00;15.32;;;-1.80;99.90;;;;;;4973187;28;20089;-88
2022/03/11 03:11:56;;;;;;;38.90;15.80;;;-1.80;99.90;;;;;;4973921;28;20023;-88
2022/03/11 03:14:22;;;;;;;31.45;14.43;;;-1.70;99.90;;;;;;4972417;28;20034;-87
2022/03/11 03:16:47;;;;;;;30.80;14.13;;;-1.70;99.90;;;;;;4972297;28;20029;-88
2022/03/11 03:19:13;;;;;;;33.78;14.38;;;-1.70;99.90;;;;;;4974002;28;20031;-88
2022/03/11 03:21:39;;;;;;;35.50;15.60;;;-1.70;99.90;;;;;;4973404;28;20027;-89
2022/03/11 03:24:06;;;;;;;32.55;15.18;;;-1.70;99.90;;;;;;4973774;28;20084;-87
2022/03/11 03:26:31;;;;;;;31.70;12.38;;;-1.80;99.90;;;;;;4973724;28;20466;-87
2022/03/11 03:28:57;;;;;;;29.27;12.73;;;-1.70;99.90;;;;;;4971764;28;20050;-88
2022/03/11 03:31:23;;;;;;;36.78;16.15;;;-1.70;99.90;;;;;;4972933;28;20034;-89
2022/03/11 03:33:49;;;;;;;33.22;14.68;;;-1.70;99.90;;;;;;4973565;28;20026;-91
2022/03/11 03:36:15;;;;;;;34.33;13.73;;;-1.70;99.90;;;;;;4973294;28;20490;-90
2022/03/11 03:38:41;;;;;;;35.22;15.32;;;-1.70;99.90;;;;;;4973008;28;20494;-89
2022/03/11 03:41:07;;;;;;;33.53;16.70;;;-1.70;99.90;;;;;;4971612;28;20049;-90
2022/03/11 03:43:32;;;;;;;38.97;15.50;;;-1.80;99.90;;;;;;4973378;28;20039;-89
2022/03/11 03:45:58;;;;;;;36.92;16.30;;;-1.90;99.90;;;;;;4973141;28;20033;-88
2022/03/11 03:48:24;;;;;;;33.78;13.98;;;-2.00;99.90;;;;;;4972819;28;20054;-88
2022/03/11 03:50:49;;;;;;;36.22;14.63;;;-2.00;99.90;;;;;;4973311;28;20035;-91
2022/03/11 03:53:15;;;;;;;34.60;15.23;;;-1.90;99.90;;;;;;4972080;28;20030;-90
2022/03/11 03:55:40;;;;;;;35.13;15.55;;;-1.90;99.90;;;;;;4973208;28;20035;-89
2022/03/11 03:58:07;;;;;;;40.60;14.18;;;-2.00;99.90;;;;;;4974048;28;20034;-86
2022/03/11 04:00:33;;;;;;;30.58;14.43;;;-2.00;99.90;;;;;;4956318;28;20449;-88
2022/03/11 04:02:59;;;;;;;35.88;13.73;;;-2.10;99.90;;;;;;4971818;28;20078;-91
2022/03/11 04:05:24;;;;;;;34.78;15.95;;;-2.10;99.90;;;;;;4972744;28;20039;-88
2022/03/11 04:07:50;;;;;;;40.88;15.75;;;-2.10;99.90;;;;;;4974333;28;20042;-89
2022/03/11 04:10:18;;;;;;;28.38;12.70;;;-2.20;99.90;;;;;;4973005;28;20031;-89
2022/03/11 04:12:44;;;;;;;37.03;15.10;;;-2.30;99.90;;;;;;4971948;28;20019;-90
2022/03/11 04:15:10;;;;;;;33.63;15.20;;;-2.30;99.90;;;;;;4972325;28;20478;-87
2022/03/11 04:17:36;;;;;;;35.13;14.35;;;-2.40;99.90;;;;;;4971526;28;20033;-90
2022/03/11 04:20:02;;;;;;;35.33;15.65;;;-2.30;99.90;;;;;;4972840;28;20035;-88
2022/03/11 04:22:28;;;;;;;33.40;13.93;;;-2.30;99.90;;;;;;4973048;28;20031;-87
2022/03/11 04:24:54;;;;;;;35.33;15.02;;;-2.40;99.90;;;;;;4972783;28;20065;-89
2022/03/11 04:27:21;;;;;;;29.35;12.98;;;-2.40;99.90;;;;;;4971970;28;20035;-91
2022/03/11 04:29:46;;;;;;;31.85;14.75;;;-2.50;99.90;;;;;;4971031;28;20026;-87
2022/03/11 04:32:12;;;;;;;31.23;13.45;;;-2.50;99.90;;;;;;4972249;28;20034;-89
2022/03/11 04:34:38;;;;;;;34.83;15.55;;;-2.50;99.90;;;;;;4972468;28;20094;-89
2022/03/11 04:37:04;;;;;;;29.13;13.38;;;-2.50;99.70;;;;;;4972656;28;20031;-88
2022/03/11 04:39:30;;;;;;;29.50;14.98;;;-2.60;99.00;;;;;;4972134;28;20031;-90
2022/03/11 04:41:56;;;;;;;31.48;13.52;;;-2.40;99.20;;;;;;4971466;28;20019;-89
2022/03/11 04:44:22;;;;;;;30.80;14.52;;;-2.40;98.40;;;;;;4972574;28;20027;-88
2022/03/11 04:46:49;;;;;;;26.25;11.95;;;-2.40;98.10;;;;;;4972442;28;20434;-88
2022/03/11 04:49:15;;;;;;;30.50;14.23;;;-2.50;98.90;;;;;;4972258;28;20018;-89
2022/03/11 04:51:42;;;;;;;37.03;13.52;;;-2.60;97.40;;;;;;4987808;28;20118;-90
2022/03/11 04:54:08;;;;;;;31.75;13.80;;;-2.80;98.10;;;;;;4971527;28;20030;-88
2022/03/11 04:56:34;;;;;;;29.77;11.80;;;-2.60;97.60;;;;;;4972256;28;20378;-88
2022/03/11 04:58:59;;;;;;;29.33;11.82;;;-2.70;97.60;;;;;;4972084;28;20039;-91
2022/03/11 05:01:26;;;;;;;38.03;12.57;;;-2.60;96.80;;;;;;4971926;28;20042;-90
2022/03/11 05:03:51;;;;;;;24.65;10.32;;;-2.60;96.50;;;;;;4972100;28;20092;-88
2022/03/11 05:06:17;;;;;;;33.40;10.55;;;-2.60;96.30;;;;;;4970400;28;20434;-90
2022/03/11 05:08:43;;;;;;;30.95;10.98;;;-2.70;95.90;;;;;;4971986;28;20169;-86
2022/03/11 05:11:10;;;;;;;23.92;11.00;;;-2.80;95.60;;;;;;4972076;28;20015;-89
2022/03/11 05:13:35;;;;;;;24.83;10.50;;;-2.90;95.40;;;;;;4972324;28;20031;-87
2022/03/11 05:16:03;;;;;;;23.27;10.18;;;-2.90;94.80;;;;;;4972165;28;20097;-87
2022/03/11 05:18:29;;;;;;;20.70;10.38;;;-3.00;94.90;;;;;;4971152;28;20042;-88
2022/03/11 05:20:55;;;;;;;22.52;9.27;;;-3.00;94.20;;;;;;4965578;28;20023;-89
2022/03/11 05:23:21;;;;;;;18.65;7.85;;;-3.10;94.30;;;;;;4953416;29;20037;-88
2022/03/11 05:25:47;;;;;;;25.50;11.77;;;-3.00;94.70;;;;;;4953686;28;20058;-88
2022/03/11 05:28:13;;;;;;;22.95;10.60;;;-3.00;94.20;;;;;;4971338;28;20129;-89
2022/03/11 05:30:39;;;;;;;19.20;8.65;;;-3.10;94.10;;;;;;4971627;28;20062;-86
2022/03/11 05:33:05;;;;;;;22.58;8.63;;;-3.10;93.80;;;;;;4974855;28;20804;-87
2022/03/11 05:35:31;;;;;;;17.95;8.27;;;-3.20;93.10;;;;;;4977405;28;20074;-90
2022/03/11 05:37:56;;;;;;;17.92;7.30;;;-3.30;93.60;;;;;;4976324;28;20027;-89
2022/03/11 05:40:22;;;;;;;16.50;6.20;;;-3.30;93.30;;;;;;4974971;28;20161;-87
2022/03/11 05:42:48;;;;;;;27.20;9.90;;;-3.20;92.90;;;;;;4975584;28;20371;-88
2022/03/11 05:45:13;;;;;;;17.50;8.25;;;-3.10;92.60;;;;;;4973730;28;20034;-87
2022/03/11 05:47:39;;;;;;;18.35;7.70;;;-3.20;92.40;;;;;;4975016;28;20035;-88
2022/03/11 05:50:06;;;;;;;18.60;7.47;;;-3.10;91.70;;;;;;4975838;28;20019;-89
2022/03/11 05:52:35;;;;;;;17.65;7.70;;;-3.10;92.40;;;;;;4975521;28;20090;-90
2022/03/11 05:55:00;;;;;;;18.02;7.20;;;-3.10;91.50;;;;;;4974861;28;20034;-89
2022/03/11 05:57:26;;;;;;;20.90;7.72;;;-3.20;91.30;;;;;;4975430;28;20031;-88
2022/03/11 05:59:52;;;;;;;15.90;7.63;;;-3.20;91.50;;;;;;4975390;28;20039;-89
2022/03/11 06:02:17;;;;;;;20.05;8.73;;;-3.30;91.30;;;;;;4975040;28;20055;-89
2022/03/11 06:04:43;;;;;;;20.63;8.95;;;-3.20;91.40;;;;;;4975933;28;20046;-90
2022/03/11 06:07:09;;;;;;;16.63;7.93;;;-3.10;91.70;;;;;;4974765;28;20041;-88
2022/03/11 06:09:34;;;;;;;17.58;8.25;;;-3.00;91.60;;;;;;4974412;28;20099;-89
2022/03/11 06:12:00;;;;;;;20.23;8.60;;;-3.00;91.20;;;;;;4975265;28;20445;-90
2022/03/11 06:14:26;;;;;;;17.05;7.70;;;-2.90;91.20;;;;;;4974314;28;20368;-89
2022/03/11 06:16:52;;;;;;;19.60;7.68;;;-2.90;91.20;;;;;;4975754;28;20030;-87
2022/03/11 06:19:17;;;;;;;23.98;8.95;;;-3.00;90.70;;;;;;4956014;28;20487;-89
2022/03/11 06:21:43;;;;;;;15.95;7.68;;;-3.10;90.90;;;;;;4969879;28;20364;-89
2022/03/11 06:24:09;;;;;;;19.55;7.97;;;-3.00;90.80;;;;;;4975552;28;20406;-88
2022/03/11 06:26:34;;;;;;;18.40;6.97;;;-2.90;90.80;;;;;;4974503;28;20478;-87
2022/03/11 06:29:00;;;;;;;20.13;8.00;;;-2.80;90.50;;;;;;4974013;28;20429;-88
2022/03/11 06:31:25;;;;;;;18.55;7.28;;;-2.70;90.20;;;;;;4955807;28;20450;-88
2022/03/11 06:33:52;;;;;;;20.40;8.00;;;-2.60;90.10;;;;;;4969895;28;20031;-90
2022/03/11 06:36:18;;;;;;;19.23;8.48;;;-2.60;90.20;;;;;;4967090;28;20398;-89
2022/03/11 06:38:43;;;;;;;16.67;7.95;;;-2.70;88.50;;;;;;4974068;28;20027;-87
2022/03/11 06:41:09;;;;;;;20.95;8.27;;;-2.70;88.10;;;;;;4973729;28;20039;-89
2022/03/11 06:43:35;;;;;;;23.30;9.30;;;-2.70;87.90;;;;;;4972545;28;20034;-90
2022/03/11 06:46:01;;;;;;;16.33;7.47;;;-2.70;87.20;;;;;;4959542;28;20035;-92
2022/03/11 06:48:26;;;;;;;15.65;6.90;;;-2.60;87.50;;;;;;4972619;28;20113;-87
2022/03/11 06:50:52;;;;;;;20.45;7.75;;;-2.40;86.40;;;;;;4972754;28;20059;-88
2022/03/11 06:53:18;;;;;;;16.85;6.35;;;-2.40;86.70;;;;;;4939590;28;20045;-88
2022/03/11 06:55:44;;;;;;;16.35;7.57;;;-2.30;85.40;;;;;;4972057;28;20537;-89
2022/03/11 06:58:09;;;;;;;14.88;6.63;;;-2.20;85.50;;;;;;4972613;28;20125;-89
2022/03/11 07:00:35;;;;;;;23.45;7.15;;;-2.30;84.30;;;;;;4973316;28;20589;-91
2022/03/11 07:03:02;;;;;;;23.48;8.10;;;-2.30;84.30;;;;;;4973288;28;20113;-89
2022/03/11 07:05:28;;;;;;;20.75;8.00;;;-2.20;84.70;;;;;;4971796;28;20089;-89
2022/03/11 07:07:54;;;;;;;17.52;8.13;;;-2.20;85.70;;;;;;4973910;28;20074;-89
2022/03/11 07:10:20;;;;;;;16.98;7.70;;;-2.30;85.70;;;;;;4973562;28;20101;-87
2022/03/11 07:12:46;;;;;;;15.80;6.40;;;-2.20;86.80;;;;;;4973408;28;20022;-90
2022/03/11 07:15:12;;;;;;;13.43;6.55;;;-2.00;86.10;;;;;;4973207;28;20031;-87
2022/03/11 07:17:38;;;;;;;24.02;8.40;;;-1.90;83.90;;;;;;4971610;28;20099;-88
2022/03/11 07:20:05;;;;;;;10.00;4.43;;;-1.80;82.60;;;;;;4972096;28;20067;-89
2022/03/11 07:22:34;;;;;;;15.32;6.50;;;-1.70;81.40;;;;;;4968673;28;20030;-91
2022/03/11 07:25:01;;;;;;;21.05;6.38;;;-1.60;80.40;;;;;;4963983;28;20037;-88
2022/03/11 07:27:27;;;;;;;14.45;6.35;;;-1.70;79.60;;;;;;4971765;28;20434;-90
2022/03/11 07:29:53;;;;;;;12.48;5.72;;;-1.80;78.60;;;;;;4973050;28;20079;-87
2022/03/11 07:32:19;;;;;;;11.43;5.97;;;-1.70;79.00;;;;;;4973032;28;20030;-89
2022/03/11 07:34:45;;;;;;;14.35;6.32;;;-1.60;76.40;;;;;;4969663;28;20422;-88
2022/03/11 07:37:12;;;;;;;14.35;6.10;;;-1.40;76.60;;;;;;4966090;28;20083;-89
2022/03/11 07:39:40;;;;;;;14.88;5.97;;;-1.40;75.70;;;;;;4964844;28;20363;-87
2022/03/11 07:42:06;;;;;;;14.88;6.60;;;-1.30;75.50;;;;;;4973299;28;20015;-88
2022/03/11 07:44:33;;;;;;;12.10;4.95;;;-1.10;75.60;;;;;;4973014;28;20026;-90
2022/03/11 07:46:59;;;;;;;13.07;5.82;;;-1.10;74.30;;;;;;4971185;28;20498;-88
2022/03/11 07:49:25;;;;;;;17.58;6.25;;;-1.10;75.10;;;;;;4971473;28;20031;-88
2022/03/11 07:51:51;;;;;;;18.17;6.70;;;-1.10;75.40;;;;;;4971074;28;20031;-88
2022/03/11 07:54:16;;;;;;;14.40;6.05;;;-1.10;75.10;;;;;;4970915;28;20415;-89
2022/03/11 07:56:42;;;;;;;18.27;6.80;;;-0.90;74.90;;;;;;4972059;28;20034;-89
2022/03/11 07:59:08;;;;;;;11.88;5.78;;;-0.70;75.40;;;;;;4971101;28;20031;-88
2022/03/11 08:01:33;;;;;;;14.07;4.68;;;-0.50;74.00;;;;;;4970217;28;20183;-89
2022/03/11 08:03:59;;;;;;;12.63;6.20;;;-0.40;72.30;;;;;;4971315;28;20050;-90
2022/03/11 08:06:25;;;;;;;13.35;5.95;;;-0.40;72.00;;;;;;4972398;28;20042;-90
2022/03/11 08:08:51;;;;;;;21.77;8.23;;;-0.40;71.20;;;;;;4970883;28;20039;-89
2022/03/11 08:11:16;;;;;;;15.55;6.38;;;-0.50;72.80;;;;;;4970301;28;20038;-87
2022/03/11 08:13:42;;;;;;;16.10;5.68;;;-0.40;72.30;;;;;;4971753;28;20601;-88
2022/03/11 08:16:08;;;;;;;13.48;5.93;;;-0.20;71.10;;;;;;4971328;28;20098;-87
2022/03/11 08:18:35;;;;;;;16.92;6.70;;;0.00;70.30;;;;;;4970825;28;20113;-86
2022/03/11 08:21:03;;;;;;;16.80;7.20;;;0.00;71.10;;;;;;4971476;28;20050;-89
2022/03/11 08:23:29;;;;;;;13.05;6.85;;;0.20;70.40;;;;;;4969721;28;20648;-88
2022/03/11 08:25:55;;;;;;;17.98;6.32;;;0.30;69.40;;;;;;4970941;28;20033;-89
2022/03/11 08:28:22;;;;;;;13.80;6.18;;;0.20;68.80;;;;;;4970948;28;20386;-88
2022/03/11 08:30:48;;;;;;;15.73;8.43;;;0.30;69.60;;;;;;4970448;28;20121;-89
2022/03/11 08:33:20;;;;;;;15.00;6.75;;;0.40;68.40;;;;;;4972112;28;20466;-90
2022/03/11 08:35:46;;;;;;;15.93;5.68;;;0.30;68.70;;;;;;4971099;28;20114;-91
2022/03/11 08:38:12;;;;;;;14.52;5.28;;;0.60;68.30;;;;;;4971451;28;20091;-89
2022/03/11 08:40:38;;;;;;;14.70;6.22;;;0.70;67.10;;;;;;4971362;28;20098;-88
2022/03/11 08:43:03;;;;;;;18.23;7.43;;;0.70;67.90;;;;;;4971811;28;20031;-91
2022/03/11 08:45:30;;;;;;;13.90;6.30;;;1.00;67.30;;;;;;4970045;28;20027;-87
2022/03/11 08:47:55;;;;;;;12.88;6.00;;;1.20;65.40;;;;;;4970147;28;20538;-89
2022/03/11 08:50:21;;;;;;;14.63;6.10;;;1.10;67.00;;;;;;4970616;28;20486;-89
2022/03/11 08:52:47;;;;;;;10.43;5.30;;;1.20;65.20;;;;;;4971068;28;20027;-89
2022/03/11 08:55:14;;;;;;;16.25;7.93;;;1.20;65.40;;;;;;4971233;28;20027;-88
2022/03/11 08:57:40;;;;;;;17.35;7.15;;;1.40;65.70;;;;;;4968598;28;20106;-89
2022/03/11 09:00:12;;;;;;;14.95;6.85;;;1.50;64.30;;;;;;4971213;28;20070;-89
2022/03/11 09:02:38;;;;;;;14.43;6.07;;;1.60;64.10;;;;;;4970702;28;20039;-88
2022/03/11 09:05:04;;;;;;;11.40;5.13;;;1.80;64.10;;;;;;4971264;28;20050;-89
2022/03/11 09:07:32;;;;;;;15.15;6.75;;;2.00;64.10;;;;;;4967679;28;20479;-87
2022/03/11 09:10:01;;;;;;;19.35;6.70;;;2.30;62.90;;;;;;4954645;28;20023;-90
2022/03/11 09:12:26;;;;;;;15.10;7.40;;;2.10;61.60;;;;;;4968881;28;20031;-90
2022/03/11 09:14:53;;;;;;;13.82;6.32;;;2.00;62.30;;;;;;4970735;28;20038;-88
2022/03/11 09:17:18;;;;;;;13.23;6.55;;;2.10;62.50;;;;;;4970719;28;20031;-89
2022/03/11 09:19:44;;;;;;;17.30;6.47;;;2.30;61.80;;;;;;4969211;28;20046;-86
2022/03/11 09:22:11;;;;;;;16.08;7.90;;;2.60;61.60;;;;;;4971207;28;20215;-85
2022/03/11 09:24:40;;;;;;;12.88;6.25;;;2.70;60.20;;;;;;4970903;28;20030;-88
2022/03/11 09:27:06;;;;;;;13.20;6.32;;;2.90;59.00;;;;;;4971075;28;20165;-87
2022/03/11 09:29:32;;;;;;;20.75;8.05;;;3.00;58.60;;;;;;4970690;28;20830;-90
2022/03/11 09:31:58;;;;;;;17.30;7.68;;;3.20;59.40;;;;;;4969361;28;20031;-87
2022/03/11 09:34:24;;;;;;;16.73;7.00;;;3.30;58.30;;;;;;4969801;28;20037;-89
2022/03/11 09:36:52;;;;;;;16.30;7.05;;;3.30;57.30;;;;;;4970897;28;20027;-88
2022/03/11 09:39:19;;;;;;;15.52;6.40;;;3.30;57.40;;;;;;4963464;28;20034;-90
2022/03/11 09:41:46;;;;;;;17.92;7.07;;;3.40;56.60;;;;;;4959602;28;20033;-90
2022/03/11 09:44:16;;;;;;;19.98;5.30;;;3.50;56.60;;;;;;4970105;28;20066;-88
2022/03/11 09:46:42;;;;;;;14.65;6.03;;;3.60;56.10;;;;;;4970379;28;20034;-88
2022/03/11 09:49:11;;;;;;;14.88;7.47;;;3.70;55.70;;;;;;4969191;28;20058;-89
2022/03/11 09:51:36;;;;;;;14.52;6.82;;;3.90;56.40;;;;;;4968961;28;20466;-87
2022/03/11 09:54:03;;;;;;;19.20;7.63;;;4.10;54.70;;;;;;4970656;28;20222;-88
2022/03/11 09:56:29;;;;;;;14.60;6.50;;;4.40;55.60;;;;;;4970208;28;20074;-89
2022/03/11 09:58:55;;;;;;;47.75;8.77;;;4.40;54.10;;;;;;4970559;28;20034;-89
2022/03/11 10:01:22;;;;;;;22.30;7.05;;;4.20;54.80;;;;;;4969223;28;20034;-88
2022/03/11 10:03:48;;;;;;;17.70;7.03;;;4.40;54.00;;;;;;4969096;28;20543;-89
2022/03/11 10:06:13;;;;;;;13.15;7.40;;;4.40;53.10;;;;;;4969086;28;20117;-88
2022/03/11 10:08:42;;;;;;;13.80;7.53;;;4.50;53.70;;;;;;4970044;28;20034;-88
2022/03/11 10:11:26;;;;;;;17.88;6.65;;;4.70;53.10;;;;;;4968702;28;20065;-88
2022/03/11 10:14:08;;;;;;;14.50;6.72;;;4.90;54.00;;;;;;4969477;28;20458;-90
2022/03/11 10:16:34;;;;;;;14.93;6.57;;;5.00;52.10;;;;;;4966133;28;20062;-88
2022/03/11 10:19:10;;;;;;;16.02;8.18;;;4.90;52.20;;;;;;4962325;28;20090;-88
2022/03/11 10:21:35;;;;;;;14.43;6.97;;;4.90;52.40;;;;;;4974063;28;20565;-89
2022/03/11 10:24:06;;;;;;;17.63;8.65;;;5.00;52.10;;;;;;4972645;28;20038;-89
2022/03/11 10:26:33;;;;;;;15.23;6.55;;;5.10;52.40;;;;;;4973549;28;20085;-87
2022/03/11 10:29:02;;;;;;;13.50;7.55;;;5.30;50.90;;;;;;4973068;28;20027;-86
2022/03/11 10:31:33;;;;;;;16.58;7.00;;;5.30;51.40;;;;;;4971584;28;20126;-86
2022/03/11 10:34:15;;;;;;;21.92;8.15;;;5.50;51.30;;;;;;4972707;28;20023;-88
2022/03/11 10:36:48;;;;;;;14.35;7.85;;;5.70;50.80;;;;;;4954264;28;20041;-87
2022/03/11 10:39:19;;;;;;;18.25;8.05;;;5.80;51.00;;;;;;4984504;28;20046;-87
2022/03/11 10:41:46;;;;;;;16.40;8.93;;;5.70;50.10;;;;;;4973039;28;20022;-90
2022/03/11 10:44:12;;;;;;;18.08;8.05;;;5.50;50.10;;;;;;4972339;28;20038;-87
2022/03/11 10:46:39;;;;;;;19.30;6.97;;;5.70;50.30;;;;;;4972985;28;20035;-89
2022/03/11 10:49:05;;;;;;;17.50;9.57;;;6.20;49.60;;;;;;4970617;28;20544;-90
2022/03/11 10:51:33;;;;;;;16.70;7.88;;;6.50;49.90;;;;;;4971516;28;20308;-87
2022/03/11 10:54:01;;;;;;;17.40;8.23;;;6.70;48.00;;;;;;4968380;28;20030;-86
2022/03/11 10:56:35;;;;;;;16.52;9.15;;;7.00;46.60;;;;;;4968262;28;20045;-86
2022/03/11 10:59:22;;;;;;;16.05;7.32;;;7.50;45.80;;;;;;4968293;28;20049;-87
2022/03/11 11:01:51;;;;;;;20.85;8.55;;;8.20;43.20;;;;;;4972262;28;20534;-88
2022/03/11 11:04:18;;;;;;;15.52;8.30;;;8.60;41.90;;;;;;4971775;28;20058;-84
2022/03/11 11:06:45;;;;;;;14.98;8.43;;;9.20;41.70;;;;;;4968927;28;20031;-85
2022/03/11 11:09:12;;;;;;;12.70;7.55;;;9.30;40.30;;;;;;4969049;28;20094;-85
2022/03/11 11:11:40;;;;;;;15.93;8.50;;;9.50;38.90;;;;;;4985461;28;20406;-84
2022/03/11 11:14:07;;;;;;;15.30;8.48;;;9.70;39.50;;;;;;4969672;28;20082;-85
2022/03/11 11:16:40;;;;;;;18.33;9.73;;;9.40;39.20;;;;;;4969035;28;20549;-85
2022/03/11 11:19:10;;;;;;;14.80;7.43;;;9.20;39.90;;;;;;4968034;28;20192;-84
2022/03/11 11:21:38;;;;;;;17.20;9.68;;;9.70;38.90;;;;;;4969526;28;20114;-85
2022/03/11 11:24:09;;;;;;;16.48;10.07;;;9.90;38.50;;;;;;4967017;28;20046;-84
2022/03/11 11:26:38;;;;;;;14.98;8.35;;;9.90;37.90;;;;;;4968100;28;20483;-83
2022/03/11 11:29:05;;;;;;;16.65;8.38;;;10.20;37.70;;;;;;4970891;28;20545;-82
2022/03/11 11:31:32;;;;;;;15.18;8.68;;;10.60;37.10;;;;;;4968610;28;20034;-83
2022/03/11 11:33:58;;;;;;;17.35;9.20;;;10.00;36.70;;;;;;4970972;28;20506;-83
2022/03/11 11:36:34;;;;;;;14.00;9.02;;;9.80;38.40;;;;;;4971544;28;20110;-83
2022/03/11 11:39:05;;;;;;;16.15;8.68;;;9.90;39.10;;;;;;4962987;28;20391;-82
2022/03/11 11:41:32;;;;;;;14.45;7.97;;;9.50;39.50;;;;;;4967480;28;20046;-83
2022/03/11 11:44:00;;;;;;;14.52;8.80;;;9.80;39.50;;;;;;4970569;28;20062;-82
2022/03/11 11:46:34;;;;;;;18.02;10.38;;;10.40;38.60;;;;;;4969897;28;20050;-82
2022/03/11 11:49:04;;;;;;;16.38;9.27;;;11.00;37.20;;;;;;4970411;28;20165;-82
2022/03/11 11:51:32;;;;;;;15.38;10.45;;;11.30;36.40;;;;;;4985700;28;20026;-81
2022/03/11 11:54:08;;;;;;;16.23;8.98;;;11.70;35.00;;;;;;4966475;28;20386;-82
2022/03/11 11:56:42;;;;;;;13.88;9.27;;;12.30;33.90;;;;;;4968980;28;20121;-85
2022/03/11 11:59:16;;;;;;;18.45;10.23;;;12.30;33.90;;;;;;4968982;28;20038;-83
2022/03/11 12:01:45;;;;;;;17.27;9.05;;;12.80;33.30;;;;;;4967624;28;20050;-82
2022/03/11 12:04:34;;;;;;;17.80;9.65;;;13.00;32.60;;;;;;4962653;28;20088;-81
2022/03/11 12:07:08;;;;;;;19.13;9.40;;;13.10;32.40;;;;;;4968325;28;20038;-81
2022/03/11 12:09:47;;;;;;;16.42;9.77;;;13.70;31.90;;;;;;4967626;28;20027;-84
2022/03/11 12:12:19;;;;;;;15.70;9.68;;;13.80;30.50;;;;;;4970222;28;20046;-81
2022/03/11 12:15:04;;;;;;;14.60;10.05;;;13.60;30.20;;;;;;4970293;28;20074;-81
2022/03/11 12:17:51;;;;;;;19.52;11.15;;;13.70;30.00;;;;;;4965731;28;20027;-82
2022/03/11 12:20:32;;;;;;;14.60;9.65;;;14.00;30.50;;;;;;4970019;28;20101;-81
2022/03/11 12:23:05;;;;;;;16.15;10.15;;;14.40;29.10;;;;;;4969406;28;20033;-82
2022/03/11 12:25:35;;;;;;;17.10;10.80;;;14.60;30.00;;;;;;4966941;28;20023;-82
2022/03/11 12:28:03;;;;;;;17.90;10.70;;;15.00;29.00;;;;;;4959580;28;20031;-81
2022/03/11 12:30:34;;;;;;;20.05;11.32;;;14.80;28.80;;;;;;4967123;28;20274;-81
2022/03/11 12:33:04;;;;;;;18.02;10.63;;;15.20;28.70;;;;;;4965420;28;20026;-81
2022/03/11 12:35:30;;;;;;;16.13;10.23;;;15.20;28.60;;;;;;4968043;28;20026;-82